createdAt,value
2022-11-16T00:01:25.881Z,100462.38
2022-11-16T00:03:54.642Z,100460.59
2022-11-16T00:06:21.984Z,100457.25
2022-11-16T00:09:10.470Z,100454.66
2022-11-16T00:11:37.931Z,100453.53
2022-11-16T00:14:05.433Z,100449.19
2022-11-16T00:16:31.910Z,100441.41
2022-11-16T00:19:00.663Z,100439.69
2022-11-16T00:21:27.680Z,100439.56
2022-11-16T00:23:54.426Z,100438.72
2022-11-16T00:26:21.784Z,100435.31
2022-11-16T00:28:48.775Z,100430.19
2022-11-16T00:31:15.351Z,100442.16
2022-11-16T00:33:41.780Z,100431.88
2022-11-16T00:36:11.777Z,100431.84
2022-11-16T00:38:38.761Z,100426.69
2022-11-16T00:41:05.818Z,100426.78
2022-11-16T00:43:32.778Z,100418.19
2022-11-16T00:45:59.139Z,100419.84
2022-11-16T00:48:25.842Z,100419.72
2022-11-16T00:50:52.378Z,100418.84
2022-11-16T00:53:20.263Z,100421.38
2022-11-16T00:55:48.366Z,100419.59
2022-11-16T00:58:15.517Z,100418.69
2022-11-16T01:00:43.365Z,100409.16
2022-11-16T01:03:10.008Z,100409.00
2022-11-16T01:05:36.844Z,100406.41
2022-11-16T01:08:03.476Z,100409.66
2022-11-16T01:10:30.464Z,100394.13
2022-11-16T01:12:57.283Z,100396.78
2022-11-16T01:15:26.229Z,100405.19
2022-11-16T01:17:54.862Z,100403.56
2022-11-16T01:20:24.143Z,100406.88
2022-11-16T01:22:50.605Z,100397.41
2022-11-16T01:25:17.131Z,100402.59
2022-11-16T01:27:44.116Z,100401.47
2022-11-16T01:30:13.656Z,100399.94
2022-11-16T01:32:40.092Z,100408.38
2022-11-16T01:35:07.541Z,100402.31
2022-11-16T01:37:33.894Z,100392.88
2022-11-16T01:40:00.709Z,100396.19
2022-11-16T01:42:28.937Z,100396.16
2022-11-16T01:45:06.600Z,100383.28
2022-11-16T01:47:33.095Z,100377.25
2022-11-16T01:50:06.836Z,100381.66
2022-11-16T01:52:36.492Z,100375.84
2022-11-16T01:55:04.139Z,100375.53
2022-11-16T01:57:37.811Z,100371.28
2022-11-16T02:00:07.666Z,100362.56
2022-11-16T02:02:34.220Z,100368.47
2022-11-16T02:05:02.436Z,100366.81
2022-11-16T02:08:12.898Z,100365.84
2022-11-16T02:10:48.861Z,100371.78
2022-11-16T02:13:33.955Z,100367.59
2022-11-16T02:16:12.709Z,100360.06
2022-11-16T02:18:55.814Z,100359.75
2022-11-16T02:21:31.273Z,100359.81
2022-11-16T02:24:11.578Z,100359.81
2022-11-16T02:27:15.445Z,100363.81
2022-11-16T02:29:45.739Z,100360.34
2022-11-16T02:32:19.194Z,100354.38
2022-11-16T02:35:01.139Z,100344.00
2022-11-16T02:37:31.992Z,100346.69
2022-11-16T02:40:00.575Z,100345.78
2022-11-16T02:42:35.760Z,100326.84
2022-11-16T02:45:05.540Z,100349.28
2022-11-16T02:47:34.464Z,100352.38
2022-11-16T02:50:09.356Z,100355.88
2022-11-16T02:52:37.086Z,100360.94
2022-11-16T02:55:04.311Z,100361.03
2022-11-16T02:57:42.329Z,100362.72
2022-11-16T03:00:15.836Z,100352.13
2022-11-16T03:03:16.858Z,100358.06
2022-11-16T03:06:11.474Z,100361.47
2022-11-16T03:08:55.092Z,100352.13
2022-11-16T03:11:40.046Z,100352.81
2022-11-16T03:14:11.775Z,100349.22
2022-11-16T03:16:43.596Z,100343.28
2022-11-16T03:19:14.044Z,100345.03
2022-11-16T03:21:45.407Z,100348.31
2022-11-16T03:24:11.887Z,100346.59
2022-11-16T03:26:51.158Z,100346.75
2022-11-16T03:29:40.422Z,100342.25
2022-11-16T03:32:16.454Z,100339.63
2022-11-16T03:34:49.812Z,100334.56
2022-11-16T03:37:16.463Z,100333.69
2022-11-16T03:39:44.239Z,100325.78
2022-11-16T03:42:14.382Z,100321.66
2022-11-16T03:44:42.442Z,100318.13
2022-11-16T03:47:08.791Z,100324.91
2022-11-16T03:49:35.192Z,100310.34
2022-11-16T03:52:01.556Z,100317.16
2022-11-16T03:54:27.914Z,100320.63
2022-11-16T03:56:54.370Z,100317.94
2022-11-16T03:59:20.781Z,100320.63
2022-11-16T04:01:47.114Z,100323.09
2022-11-16T04:04:34.038Z,100323.13
2022-11-16T04:07:18.880Z,100327.50
2022-11-16T04:10:03.862Z,100335.94
2022-11-16T04:12:48.613Z,100330.00
2022-11-16T04:15:33.290Z,100332.47
2022-11-16T04:18:18.146Z,100332.56
2022-11-16T04:21:05.401Z,100331.63
2022-11-16T04:23:50.385Z,100330.84
2022-11-16T04:26:16.882Z,100341.09
2022-11-16T04:28:43.270Z,100334.16
2022-11-16T04:31:28.331Z,100340.28
2022-11-16T04:34:13.249Z,100344.53
2022-11-16T04:36:57.910Z,100346.06
2022-11-16T04:39:24.571Z,100352.06
2022-11-16T04:42:09.590Z,100345.31
2022-11-16T04:44:55.350Z,100346.75
2022-11-16T04:47:21.776Z,100349.97
2022-11-16T04:49:48.276Z,100339.88
2022-11-16T04:52:14.710Z,100342.22
2022-11-16T04:54:41.077Z,100333.75
2022-11-16T04:57:07.422Z,100332.88
2022-11-16T04:59:33.802Z,100330.22
2022-11-16T05:02:09.380Z,100330.25
2022-11-16T05:04:37.447Z,100330.03
2022-11-16T05:07:04.626Z,100334.56
2022-11-16T05:09:31.283Z,100318.94
2022-11-16T05:11:57.919Z,100320.69
2022-11-16T05:14:24.321Z,100324.25
2022-11-16T05:16:51.309Z,100337.06
2022-11-16T05:19:36.424Z,100318.19
2022-11-16T05:22:02.756Z,100318.47
2022-11-16T05:24:35.231Z,100309.47
2022-11-16T05:27:04.496Z,100318.03
2022-11-16T05:29:31.117Z,100321.31
2022-11-16T05:31:58.266Z,100318.19
2022-11-16T05:34:25.317Z,100324.28
2022-11-16T05:36:51.705Z,100310.41
2022-11-16T05:39:18.248Z,100316.28
2022-11-16T05:41:44.897Z,100326.44
2022-11-16T05:44:11.822Z,100325.59
2022-11-16T05:46:38.404Z,100321.25
2022-11-16T05:49:07.749Z,100330.75
2022-11-16T05:51:39.098Z,100316.44
2022-11-16T05:54:05.974Z,100336.03
2022-11-16T05:56:34.165Z,100330.72
2022-11-16T05:59:00.864Z,100332.56
2022-11-16T06:01:27.382Z,100326.59
2022-11-16T06:03:53.800Z,100336.09
2022-11-16T06:06:20.574Z,100341.06
2022-11-16T06:08:47.135Z,100330.69
2022-11-16T06:11:14.121Z,100347.69
2022-11-16T06:13:40.486Z,100344.19
2022-11-16T06:16:07.211Z,100362.34
2022-11-16T06:18:37.292Z,100358.38
2022-11-16T06:21:03.982Z,100372.75
2022-11-16T06:23:30.306Z,100372.81
2022-11-16T06:25:56.913Z,100380.50
2022-11-16T06:28:23.990Z,100381.47
2022-11-16T06:30:50.400Z,100380.41
2022-11-16T06:33:17.553Z,100377.75
2022-11-16T06:35:44.522Z,100382.38
2022-11-16T06:38:11.151Z,100394.13
2022-11-16T06:40:38.302Z,100386.03
2022-11-16T06:43:04.630Z,100390.22
2022-11-16T06:45:31.036Z,100385.66
2022-11-16T06:47:57.356Z,100392.53
2022-11-16T06:50:23.729Z,100386.75
2022-11-16T06:52:50.059Z,100385.38
2022-11-16T06:55:16.702Z,100378.69
2022-11-16T06:57:43.051Z,100381.19
2022-11-16T07:00:10.888Z,100383.91
2022-11-16T07:02:38.418Z,100384.38
2022-11-16T07:05:06.256Z,100379.41
2022-11-16T07:07:33.428Z,100365.53
2022-11-16T07:10:00.239Z,100378.38
2022-11-16T07:12:27.247Z,100381.03
2022-11-16T07:14:53.622Z,100387.88
2022-11-16T07:17:19.946Z,100376.94
2022-11-16T07:19:46.268Z,100373.22
2022-11-16T07:22:12.657Z,100386.81
2022-11-16T07:24:38.988Z,100371.41
2022-11-16T07:27:08.340Z,100377.56
2022-11-16T07:29:34.752Z,100374.09
2022-11-16T07:32:01.122Z,100374.91
2022-11-16T07:34:27.460Z,100365.47
2022-11-16T07:36:53.834Z,100377.81
2022-11-16T07:39:21.785Z,100375.22
2022-11-16T07:41:50.303Z,100382.88
2022-11-16T07:44:16.631Z,100376.63
2022-11-16T07:46:47.904Z,100375.84
2022-11-16T07:49:16.460Z,100387.88
2022-11-16T07:51:43.531Z,100388.66
2022-11-16T07:54:13.829Z,100383.63
2022-11-16T07:56:41.357Z,100381.03
2022-11-16T07:59:08.107Z,100383.75
2022-11-16T08:01:34.875Z,100388.91
2022-11-16T08:04:04.193Z,100380.13
2022-11-16T08:06:32.150Z,100370.97
2022-11-16T08:08:59.302Z,100375.06
2022-11-16T08:11:26.564Z,100377.22
2022-11-16T08:13:53.085Z,100381.22
2022-11-16T08:16:21.835Z,100382.28
2022-11-16T08:18:48.685Z,100373.63
2022-11-16T08:21:16.699Z,100371.69
2022-11-16T08:23:44.842Z,100371.69
2022-11-16T08:26:15.307Z,100375.16
2022-11-16T08:28:46.658Z,100378.53
2022-11-16T08:31:19.409Z,100377.06
2022-11-16T08:33:49.033Z,100378.13
2022-11-16T08:36:18.614Z,100380.38
2022-11-16T08:38:46.490Z,100381.34
2022-11-16T08:41:13.881Z,100383.84
2022-11-16T08:43:40.682Z,100371.16
2022-11-16T08:46:09.051Z,100376.22
2022-11-16T08:48:37.002Z,100380.41
2022-11-16T08:51:17.569Z,100389.09
2022-11-16T08:53:44.718Z,100375.56
2022-11-16T08:56:13.605Z,100383.03
2022-11-16T08:58:46.651Z,100386.38
2022-11-16T09:01:15.908Z,100389.09
2022-11-16T09:03:42.646Z,100377.34
2022-11-16T09:06:10.291Z,100375.28
2022-11-16T09:08:38.319Z,100368.53
2022-11-16T09:11:06.394Z,100378.94
2022-11-16T09:13:32.984Z,100375.28
2022-11-16T09:16:00.461Z,100388.53
2022-11-16T09:18:28.086Z,100389.44
2022-11-16T09:20:55.673Z,100397.78
2022-11-16T09:23:25.498Z,100398.75
2022-11-16T09:25:53.480Z,100409.72
2022-11-16T09:28:21.454Z,100404.59
2022-11-16T09:30:50.812Z,100418.97
2022-11-16T09:33:17.439Z,100421.47
2022-11-16T09:35:44.002Z,100425.91
2022-11-16T09:38:12.704Z,100413.59
2022-11-16T09:40:46.230Z,100418.09
2022-11-16T09:43:39.556Z,100426.69
2022-11-16T09:46:23.861Z,100435.13
2022-11-16T09:48:51.029Z,100440.47
2022-11-16T09:51:21.020Z,100444.72
2022-11-16T09:53:58.269Z,100445.59
2022-11-16T09:56:27.446Z,100438.13
2022-11-16T09:59:13.593Z,100443.44
2022-11-16T10:02:19.558Z,100471.38
2022-11-16T10:04:58.620Z,100457.56
2022-11-16T10:07:36.395Z,100457.53
2022-11-16T10:10:02.947Z,100452.94
2022-11-16T10:12:46.587Z,100460.53
2022-11-16T10:15:31.010Z,100458.72
2022-11-16T10:18:28.914Z,100463.94
2022-11-16T10:20:58.110Z,100460.53
2022-11-16T10:23:45.405Z,100461.25
2022-11-16T10:26:24.000Z,100441.84
2022-11-16T10:28:56.497Z,100460.41
2022-11-16T10:31:53.197Z,100454.81
2022-11-16T10:34:24.935Z,100456.56
2022-11-16T10:36:54.896Z,100450.72
2022-11-16T10:39:21.777Z,100446.28
2022-11-16T10:41:50.669Z,100451.59
2022-11-16T10:44:38.864Z,100453.50
2022-11-16T10:47:16.947Z,100452.31
2022-11-16T10:50:16.871Z,100443.75
2022-11-16T10:52:43.279Z,100439.34
2022-11-16T10:55:18.266Z,100438.56
2022-11-16T10:58:02.632Z,100435.06
2022-11-16T11:00:41.329Z,100438.53
2022-11-16T11:03:09.559Z,100437.94
2022-11-16T11:05:36.662Z,100432.97
2022-11-16T11:08:06.496Z,100439.78
2022-11-16T11:10:37.692Z,100433.44
2022-11-16T11:13:10.181Z,100436.09
2022-11-16T11:15:42.275Z,100437.06
2022-11-16T11:18:23.830Z,100430.88
2022-11-16T11:21:05.311Z,100433.69
2022-11-16T11:23:46.772Z,100432.59
2022-11-16T11:26:35.817Z,100431.84
2022-11-16T11:29:22.198Z,100428.53
2022-11-16T11:32:04.043Z,100437.19
2022-11-16T11:34:34.900Z,100427.84
2022-11-16T11:37:03.757Z,100440.78
2022-11-16T11:39:34.026Z,100439.94
2022-11-16T11:42:14.427Z,100432.41
2022-11-16T11:44:47.415Z,100434.31
2022-11-16T11:47:57.302Z,100432.53
2022-11-16T11:50:40.217Z,100430.28
2022-11-16T11:53:21.011Z,100441.28
2022-11-16T11:55:57.682Z,100435.78
2022-11-16T11:58:32.983Z,100432.22
2022-11-16T12:01:33.600Z,100426.44
2022-11-16T12:04:32.864Z,100425.19
2022-11-16T12:07:32.121Z,100425.34
2022-11-16T12:10:46.815Z,100431.06
2022-11-16T12:13:39.897Z,100408.00
2022-11-16T12:16:20.362Z,100419.38
2022-11-16T12:19:16.882Z,100419.44
2022-11-16T12:22:03.122Z,100416.97
2022-11-16T12:24:49.467Z,100408.56
2022-11-16T12:27:26.906Z,100415.13
2022-11-16T12:30:16.415Z,100415.94
2022-11-16T12:32:58.294Z,100411.97
2022-11-16T12:35:27.782Z,100419.56
2022-11-16T12:38:09.331Z,100413.47
2022-11-16T12:41:16.418Z,100406.72
2022-11-16T12:44:02.757Z,100407.84
2022-11-16T12:46:54.107Z,100406.16
2022-11-16T12:50:00.073Z,100406.91
2022-11-16T12:52:41.379Z,100408.81
2022-11-16T12:55:33.243Z,100412.09
2022-11-16T12:58:02.936Z,100413.81
2022-11-16T13:00:40.947Z,100413.81
2022-11-16T13:03:28.219Z,100406.13
2022-11-16T13:06:00.065Z,100414.03
2022-11-16T13:08:38.073Z,100418.41
2022-11-16T13:11:17.155Z,100414.94
2022-11-16T13:13:51.398Z,100414.06
2022-11-16T13:16:20.460Z,100392.47
2022-11-16T13:18:47.227Z,100401.84
2022-11-16T13:21:25.773Z,100409.03
2022-11-16T13:24:15.809Z,100400.50
2022-11-16T13:26:56.152Z,100389.22
2022-11-16T13:29:34.055Z,100404.72
2022-11-16T13:32:08.761Z,100405.47
2022-11-16T13:34:38.876Z,100409.78
2022-11-16T13:37:39.299Z,100396.94
2022-11-16T13:40:05.588Z,100397.06
2022-11-16T13:42:34.542Z,100392.69
2022-11-16T13:45:20.545Z,100399.66
2022-11-16T13:47:55.948Z,100394.66
2022-11-16T13:50:33.136Z,100398.03
2022-11-16T13:56:15.996Z,100393.78
2022-11-16T13:58:49.496Z,100396.94
2022-11-16T14:01:17.439Z,100395.22
2022-11-16T14:03:45.160Z,100396.13
2022-11-16T14:06:23.800Z,100396.00
2022-11-16T14:08:57.799Z,100389.91
2022-11-16T14:11:34.688Z,100385.75
2022-11-16T14:14:05.602Z,100386.59
2022-11-16T14:16:43.567Z,100390.69
2022-11-16T14:19:51.899Z,100396.75
2022-11-16T14:22:21.242Z,100400.09
2022-11-16T14:25:00.486Z,100399.25
2022-11-16T14:28:09.929Z,100402.47
2022-11-16T14:30:52.471Z,100406.91
2022-11-16T14:33:31.500Z,100402.47
2022-11-16T14:35:59.097Z,100405.00
2022-11-16T14:38:41.555Z,100414.44
2022-11-16T14:41:23.376Z,100406.53
2022-11-16T14:43:54.194Z,100399.72
2022-11-16T14:46:23.528Z,100397.19
2022-11-16T14:48:50.510Z,100399.44
2022-11-16T14:51:27.171Z,100397.72
2022-11-16T14:53:59.202Z,100381.72
2022-11-16T14:56:25.642Z,100389.38
2022-11-16T14:58:52.962Z,100388.16
2022-11-16T15:01:22.628Z,100385.81
2022-11-16T15:04:09.176Z,100395.94
2022-11-16T15:06:42.024Z,100380.59
2022-11-16T15:09:17.390Z,100378.84
2022-11-16T15:12:07.329Z,100382.28
2022-11-16T15:14:40.682Z,100389.78
2022-11-16T15:17:08.922Z,100390.59
2022-11-16T15:19:35.770Z,100379.50
2022-11-16T15:22:04.430Z,100392.47
2022-11-16T15:24:35.032Z,100385.16
2022-11-16T15:27:25.590Z,100384.56
2022-11-16T15:29:52.138Z,100384.63
2022-11-16T15:32:18.571Z,100382.69
2022-11-16T15:34:53.013Z,100388.97
2022-11-16T15:37:31.135Z,100395.63
2022-11-16T15:39:59.894Z,100394.72
2022-11-16T15:42:28.153Z,100377.56
2022-11-16T15:44:55.538Z,100392.25
2022-11-16T15:47:22.989Z,100385.09
2022-11-16T15:49:52.977Z,100385.28
2022-11-16T15:52:50.270Z,100382.59
2022-11-16T15:55:38.543Z,100379.00
2022-11-16T15:58:25.708Z,100386.75
2022-11-16T16:00:53.535Z,100376.69
2022-11-16T16:03:28.431Z,100383.19
2022-11-16T16:05:55.124Z,100399.59
2022-11-16T16:08:29.878Z,100391.75
2022-11-16T16:11:05.126Z,100382.41
2022-11-16T16:13:37.650Z,100384.00
2022-11-16T16:16:36.166Z,100381.69
2022-11-16T16:19:24.122Z,100386.81
2022-11-16T16:21:50.830Z,100391.88
2022-11-16T16:24:44.354Z,100384.91
2022-11-16T16:27:18.437Z,100372.72
2022-11-16T16:29:58.369Z,100383.31
2022-11-16T16:32:26.205Z,100376.31
2022-11-16T16:34:57.590Z,100391.66
2022-11-16T16:37:26.839Z,100390.84
2022-11-16T16:39:53.332Z,100393.53
2022-11-16T16:42:19.888Z,100400.16
2022-11-16T16:44:47.775Z,100398.66
2022-11-16T16:47:14.953Z,100401.81
2022-11-16T16:49:41.716Z,100406.22
2022-11-16T16:52:08.416Z,100404.56
2022-11-16T16:54:34.771Z,100407.91
2022-11-16T16:57:03.747Z,100403.66
2022-11-16T16:59:30.963Z,100416.56
2022-11-16T17:01:58.522Z,100407.97
2022-11-16T17:04:25.397Z,100413.13
2022-11-16T17:06:52.652Z,100394.94
2022-11-16T17:09:19.082Z,100402.63
2022-11-16T17:11:47.367Z,100405.28
2022-11-16T17:14:13.738Z,100413.13
2022-11-16T17:16:40.154Z,100415.69
2022-11-16T17:19:06.588Z,100412.16
2022-11-16T17:21:32.931Z,100430.16
2022-11-16T17:23:59.277Z,100429.25
2022-11-16T17:26:29.174Z,100426.81
2022-11-16T17:28:57.034Z,100425.75
2022-11-16T17:31:24.570Z,100424.09
2022-11-16T17:33:51.395Z,100421.59
2022-11-16T17:36:17.883Z,100426.31
2022-11-16T17:38:45.012Z,100422.91
2022-11-16T17:41:16.357Z,100420.09
2022-11-16T17:43:44.909Z,100426.00
2022-11-16T17:46:16.154Z,100428.59
2022-11-16T17:48:44.269Z,100437.66
2022-11-16T17:51:11.624Z,100431.09
2022-11-16T17:53:39.839Z,100414.63
2022-11-16T17:56:06.821Z,100413.19
2022-11-16T17:58:34.335Z,100419.59
2022-11-16T18:01:00.696Z,100419.69
2022-11-16T18:03:28.342Z,100417.63
2022-11-16T18:06:09.119Z,100427.91
2022-11-16T18:08:36.674Z,100423.78
2022-11-16T18:11:09.604Z,100428.25
2022-11-16T18:13:37.177Z,100423.63
2022-11-16T18:16:07.894Z,100422.09
2022-11-16T18:18:34.469Z,100422.09
2022-11-16T18:21:01.327Z,100418.44
2022-11-16T18:23:29.031Z,100422.72
2022-11-16T18:25:55.836Z,100414.88
2022-11-16T18:28:22.966Z,100424.50
2022-11-16T18:30:49.489Z,100420.97
2022-11-16T18:33:16.449Z,100412.47
2022-11-16T18:35:43.486Z,100420.97
2022-11-16T18:38:13.064Z,100414.03
2022-11-16T18:40:40.569Z,100423.47
2022-11-16T18:43:12.527Z,100421.78
2022-11-16T18:45:38.895Z,100422.53
2022-11-16T18:48:05.250Z,100408.91
2022-11-16T18:50:31.611Z,100412.91
2022-11-16T18:52:57.950Z,100419.75
2022-11-16T18:55:24.315Z,100412.88
2022-11-16T18:57:50.634Z,100415.56
2022-11-16T19:00:19.358Z,100419.34
2022-11-16T19:02:45.723Z,100412.19
2022-11-16T19:05:12.083Z,100399.13
2022-11-16T19:07:38.581Z,100399.34
2022-11-16T19:10:05.383Z,100392.47
2022-11-16T19:12:31.697Z,100408.41
2022-11-16T19:14:58.410Z,100398.28
2022-11-16T19:17:25.120Z,100399.72
2022-11-16T19:19:51.913Z,100388.72
2022-11-16T19:22:19.561Z,100392.06
2022-11-16T19:24:46.515Z,100393.97
2022-11-16T19:27:12.894Z,100383.50
2022-11-16T19:29:39.245Z,100399.75
2022-11-16T19:32:05.585Z,100386.94
2022-11-16T19:34:33.606Z,100386.09
2022-11-16T19:37:00.122Z,100387.72
2022-11-16T19:39:26.884Z,100386.41
2022-11-16T19:41:53.207Z,100389.44
2022-11-16T19:44:20.408Z,100394.59
2022-11-16T19:46:46.758Z,100403.19
2022-11-16T19:49:20.029Z,100397.25
2022-11-16T19:51:46.698Z,100395.97
2022-11-16T19:54:14.750Z,100394.41
2022-11-16T19:56:41.970Z,100380.06
2022-11-16T19:59:08.331Z,100386.00
2022-11-16T20:01:35.147Z,100388.19
2022-11-16T20:04:03.891Z,100388.50
2022-11-16T20:06:36.197Z,100384.03
2022-11-16T20:09:11.515Z,100390.22
2022-11-16T20:11:40.433Z,100383.97
2022-11-16T20:14:09.110Z,100382.09
2022-11-16T20:16:39.374Z,100386.53
2022-11-16T20:19:07.601Z,100383.91
2022-11-16T20:21:36.796Z,100378.56
2022-11-16T20:24:07.124Z,100378.72
2022-11-16T20:26:35.356Z,100370.25
2022-11-16T20:29:01.873Z,100370.09
2022-11-16T20:31:30.485Z,100374.66
2022-11-16T20:34:01.995Z,100377.06
2022-11-16T20:36:29.983Z,100381.06
2022-11-16T20:38:58.185Z,100377.84
2022-11-16T20:41:26.991Z,100382.09
2022-11-16T20:43:55.391Z,100374.56
2022-11-16T20:46:23.886Z,100380.25
2022-11-16T20:48:50.525Z,100385.75
2022-11-16T20:51:19.170Z,100381.31
2022-11-16T20:53:47.513Z,100371.84
2022-11-16T20:56:15.577Z,100379.50
2022-11-16T20:58:41.907Z,100374.38
2022-11-16T21:01:12.480Z,100379.50
2022-11-16T21:03:39.733Z,100376.47
2022-11-16T21:06:10.113Z,100376.47
2022-11-16T21:08:37.911Z,100376.78
2022-11-16T21:11:16.067Z,100380.50
2022-11-16T21:14:00.926Z,100381.25
2022-11-16T21:16:27.240Z,100371.06
2022-11-16T21:18:55.347Z,100377.66
2022-11-16T21:21:21.723Z,100375.22
2022-11-16T21:23:51.706Z,100371.63
2022-11-16T21:26:25.051Z,100381.69
2022-11-16T21:28:51.990Z,100373.84
2022-11-16T21:31:21.115Z,100365.25
2022-11-16T21:33:48.254Z,100360.44
2022-11-16T21:36:17.625Z,100362.56
2022-11-16T21:38:44.433Z,100361.66
2022-11-16T21:41:12.238Z,100363.41
2022-11-16T21:43:40.482Z,100354.78
2022-11-16T21:46:10.736Z,100358.09
2022-11-16T21:48:37.566Z,100354.88
2022-11-16T21:51:06.467Z,100346.44
2022-11-16T21:53:33.996Z,100350.22
2022-11-16T21:56:00.834Z,100344.28
2022-11-16T21:58:27.194Z,100350.50
2022-11-16T22:00:58.007Z,100354.72
2022-11-16T22:03:25.973Z,100357.00
2022-11-16T22:06:12.136Z,100345.03
2022-11-16T22:08:38.592Z,100349.31
2022-11-16T22:11:05.342Z,100342.47
2022-11-16T22:13:31.812Z,100337.63
2022-11-16T22:15:58.456Z,100342.66
2022-11-16T22:18:24.759Z,100349.56
2022-11-16T22:20:51.137Z,100341.16
2022-11-16T22:23:22.473Z,100340.84
2022-11-16T22:25:49.763Z,100339.50
2022-11-16T22:28:21.019Z,100339.31
2022-11-16T22:30:51.598Z,100335.84
2022-11-16T22:33:18.609Z,100328.44
2022-11-16T22:35:47.333Z,100332.56
2022-11-16T22:38:13.636Z,100345.22
2022-11-16T22:40:40.000Z,100336.69
2022-11-16T22:43:06.355Z,100325.94
2022-11-16T22:45:32.716Z,100329.38
2022-11-16T22:47:59.095Z,100320.56
2022-11-16T22:50:25.610Z,100318.16
2022-11-16T22:52:51.943Z,100324.81
2022-11-16T22:55:18.314Z,100327.44
2022-11-16T22:57:44.676Z,100310.91
2022-11-16T23:00:12.313Z,100309.66
2022-11-16T23:02:38.630Z,100318.06
2022-11-16T23:05:05.375Z,100319.34
2022-11-16T23:07:31.846Z,100311.44
2022-11-16T23:09:58.316Z,100316.50
2022-11-16T23:12:42.931Z,100324.03
2022-11-16T23:15:30.926Z,100319.94
2022-11-16T23:17:57.487Z,100316.56
2022-11-16T23:20:42.523Z,100307.13
2022-11-16T23:23:36.626Z,100303.88
2022-11-16T23:26:25.147Z,100299.25
2022-11-16T23:28:51.461Z,100299.31
2022-11-16T23:31:17.824Z,100285.75
2022-11-16T23:33:44.161Z,100279.63
2022-11-16T23:36:13.993Z,100274.59
2022-11-16T23:38:40.652Z,100284.03
2022-11-16T23:41:30.686Z,100273.78
2022-11-16T23:43:59.960Z,100263.34
2022-11-16T23:46:31.236Z,100259.38
2022-11-16T23:48:58.276Z,100259.00
2022-11-16T23:51:25.153Z,100252.22
2022-11-16T23:53:52.923Z,100247.88
2022-11-16T23:56:21.551Z,100249.59
2022-11-16T23:58:48.317Z,100245.25
